Time;durP1;ratioP1;P1;durP2;ratioP2;P2;SDS_P1;SDS_P2;PMS_P1;PMS_P2;Temp;Humidity;BMP_temperature;BMP_pressure;BME280_temperature;BME280_humidity;BME280_pressure;Samples;Min_cycle;Max_cycle;Signal;HPM_P1;HPM_P2
2021/12/04 00:00:22;;;;;;;24.05;19.70;;;4.60;99.90;;;;;;4969709;28;88884;-35
2021/12/04 00:02:48;;;;;;;;;;;4.60;99.90;;;;;;4968480;28;87989;-34
2021/12/04 00:05:13;;;;;;;29.73;21.83;;;4.70;99.90;;;;;;4970613;28;89397;-35
2021/12/04 00:07:39;;;;;;;24.88;21.38;;;4.60;99.90;;;;;;4967689;28;88943;-35
2021/12/04 00:10:06;;;;;;;25.90;22.08;;;4.70;99.90;;;;;;4951991;28;89028;-34
2021/12/04 00:12:33;;;;;;;31.67;23.50;;;4.60;99.90;;;;;;4969218;28;86584;-35
2021/12/04 00:14:59;;;;;;;28.42;21.65;;;4.60;99.90;;;;;;4969564;28;89080;-35
2021/12/04 00:17:25;;;;;;;26.73;21.10;;;4.70;99.90;;;;;;4968297;28;88867;-34
2021/12/04 00:19:51;;;;;;;25.13;21.52;;;4.70;99.90;;;;;;4969762;28;88370;-35
2021/12/04 00:22:17;;;;;;;26.00;20.95;;;4.60;99.90;;;;;;4970012;28;87266;-34
2021/12/04 00:24:42;;;;;;;30.30;21.40;;;4.60;99.90;;;;;;4968767;28;88355;-35
2021/12/04 00:27:09;;;;;;;27.80;22.83;;;4.60;99.90;;;;;;4969054;28;89530;-34
2021/12/04 00:29:35;;;;;;;27.60;19.08;;;4.70;99.90;;;;;;4968863;28;89696;-34
2021/12/04 00:32:10;;;;;;;24.15;21.20;;;4.80;99.90;;;;;;4969232;28;87474;-34
2021/12/04 00:34:40;;;;;;;24.25;21.17;;;4.70;99.90;;;;;;4969037;28;89085;-35
2021/12/04 00:50:48;;;;;;;33.95;22.23;;;4.70;99.90;;;;;;4968796;28;88523;-35
2021/12/04 00:53:13;;;;;;;27.52;22.20;;;4.70;99.90;;;;;;4968651;28;89384;-35
2021/12/04 00:55:39;;;;;;;28.80;22.55;;;4.70;99.90;;;;;;4968426;28;89238;-34
2021/12/04 00:58:04;;;;;;;29.63;21.80;;;4.60;99.90;;;;;;4967923;28;88924;-34
2021/12/04 01:00:30;;;;;;;27.92;22.08;;;4.70;99.90;;;;;;4968967;28;88662;-35
2021/12/04 01:02:56;;;;;;;33.22;24.38;;;4.60;99.90;;;;;;4968153;28;86596;-35
2021/12/04 01:05:21;;;;;;;29.80;21.17;;;4.60;99.90;;;;;;4969264;28;88576;-34
2021/12/04 01:07:47;;;;;;;31.60;23.10;;;4.60;99.90;;;;;;4968444;28;89008;-35
2021/12/04 01:10:13;;;;;;;26.55;23.60;;;4.70;99.90;;;;;;4951955;28;88374;-35
2021/12/04 01:12:38;;;;;;;34.33;24.40;;;4.60;99.90;;;;;;4969394;28;88327;-34
2021/12/04 01:15:06;;;;;;;33.20;24.27;;;4.60;99.90;;;;;;4968103;28;89154;-34
2021/12/04 01:20:15;;;;;;;26.65;22.02;;;4.60;99.90;;;;;;4950491;28;88282;-35
2021/12/04 01:22:40;;;;;;;27.73;23.70;;;4.70;99.90;;;;;;4952857;28;87206;-35
2021/12/04 01:25:06;;;;;;;29.38;23.77;;;4.70;99.90;;;;;;4968112;28;89140;-35
2021/12/04 01:27:32;;;;;;;25.77;23.10;;;4.60;99.90;;;;;;4951340;28;88596;-35
2021/12/04 01:29:58;;;;;;;26.20;22.23;;;4.70;99.90;;;;;;4951950;28;88865;-35
2021/12/04 01:32:23;;;;;;;26.73;20.80;;;4.70;99.90;;;;;;4952206;28;88886;-35
2021/12/04 01:34:49;;;;;;;24.92;22.15;;;4.60;99.90;;;;;;4952651;28;89244;-34
2021/12/04 01:37:15;;;;;;;25.63;21.67;;;4.70;99.90;;;;;;4952218;28;88932;-35
2021/12/04 01:39:40;;;;;;;24.45;21.88;;;4.70;99.90;;;;;;4966915;28;88656;-34
2021/12/04 01:42:06;;;;;;;24.98;19.02;;;4.70;99.90;;;;;;4952087;28;89880;-34
2021/12/04 01:44:32;;;;;;;24.98;20.70;;;4.70;99.90;;;;;;4967355;28;89134;-35
2021/12/04 01:46:58;;;;;;;25.58;22.65;;;4.70;99.90;;;;;;4952212;28;88993;-34
2021/12/04 01:49:24;;;;;;;26.23;19.80;;;4.60;99.90;;;;;;4952066;28;88269;-35
2021/12/04 01:51:50;;;;;;;25.00;21.35;;;4.60;99.90;;;;;;4952046;28;89269;-35
2021/12/04 01:54:15;;;;;;;24.27;21.65;;;4.60;99.90;;;;;;4952543;28;88026;-33
2021/12/04 01:56:41;;;;;;;23.73;20.40;;;4.60;99.90;;;;;;4966638;28;90182;-34
2021/12/04 01:59:08;;;;;;;21.35;18.35;;;4.60;99.90;;;;;;4952302;28;88572;-34
2021/12/04 02:01:33;;;;;;;22.20;18.02;;;4.60;99.90;;;;;;4951381;28;88527;-35
2021/12/04 02:03:59;;;;;;;21.05;18.85;;;4.60;99.90;;;;;;4951317;28;89074;-35
2021/12/04 02:06:25;;;;;;;18.90;16.65;;;4.60;99.90;;;;;;4952022;28;89084;-34
2021/12/04 02:08:51;;;;;;;15.77;12.98;;;4.60;99.90;;;;;;4951549;28;89691;-34
2021/12/04 02:11:17;;;;;;;18.65;16.40;;;4.70;99.90;;;;;;4968152;28;89102;-35
2021/12/04 02:13:43;;;;;;;17.30;15.20;;;4.70;99.90;;;;;;4951455;28;88989;-35
2021/12/04 02:16:20;;;;;;;18.25;16.05;;;4.70;99.90;;;;;;4949954;28;88693;-35
2021/12/04 02:18:46;;;;;;;20.67;17.77;;;4.70;99.90;;;;;;4950743;28;87801;-35
2021/12/04 02:21:12;;;;;;;19.15;17.13;;;4.70;99.90;;;;;;4950932;28;87807;-34
2021/12/04 02:23:38;;;;;;;20.38;15.85;;;4.70;99.90;;;;;;4950454;28;87665;-34
2021/12/04 02:26:04;;;;;;;17.27;15.57;;;4.60;99.90;;;;;;4951827;28;88447;-34
2021/12/04 02:28:30;;;;;;;16.23;14.70;;;4.60;99.90;;;;;;4950598;28;88603;-35
2021/12/04 02:30:57;;;;;;;18.02;15.55;;;4.60;99.90;;;;;;4950044;28;89185;-35
2021/12/04 02:33:22;;;;;;;16.92;15.32;;;4.60;99.90;;;;;;4951557;28;89123;-34
2021/12/04 02:35:52;;;;;;;16.75;14.90;;;4.70;99.90;;;;;;4951072;28;88982;-34
2021/12/04 02:38:23;;;;;;;14.75;13.25;;;4.60;99.90;;;;;;4934604;28;88935;-34
2021/12/04 02:40:49;;;;;;;16.95;15.25;;;4.60;99.90;;;;;;4949804;28;87728;-35
2021/12/04 02:43:15;;;;;;;16.45;14.52;;;4.60;99.90;;;;;;4950714;28;89370;-35
2021/12/04 02:45:42;;;;;;;16.58;13.20;;;4.60;99.90;;;;;;4951439;28;88485;-34
2021/12/04 02:48:08;;;;;;;14.35;12.85;;;4.60;99.90;;;;;;4950680;28;88705;-35
2021/12/04 02:50:34;;;;;;;14.82;13.13;;;4.50;99.90;;;;;;4951071;28;88045;-34
2021/12/04 02:52:59;;;;;;;12.95;11.65;;;4.50;99.90;;;;;;4951294;28;90166;-35
2021/12/04 02:55:25;;;;;;;14.90;13.38;;;4.50;99.90;;;;;;4949305;28;89134;-34
2021/12/04 02:57:51;;;;;;;14.07;12.77;;;4.50;99.90;;;;;;4950885;28;89464;-35
2021/12/04 03:00:23;;;;;;;15.50;13.10;;;4.50;99.90;;;;;;4951100;28;87296;-35
2021/12/04 03:02:48;;;;;;;13.27;11.82;;;4.50;99.90;;;;;;4950896;28;89341;-35
2021/12/04 03:05:21;;;;;;;13.90;12.50;;;4.50;99.90;;;;;;4950240;28;89158;-35
2021/12/04 03:07:47;;;;;;;13.25;12.05;;;4.60;99.90;;;;;;4950545;28;89225;-35
2021/12/04 03:10:13;;;;;;;13.93;12.48;;;4.50;99.90;;;;;;4950538;28;88129;-35
2021/12/04 03:12:40;;;;;;;13.18;11.98;;;4.50;99.90;;;;;;4951317;28;89042;-35
2021/12/04 03:15:07;;;;;;;15.13;13.63;;;4.50;99.90;;;;;;4966832;28;88483;-35
2021/12/04 03:17:33;;;;;;;13.38;12.13;;;4.50;99.90;;;;;;4949790;28;88602;-34
2021/12/04 03:19:59;;;;;;;13.88;12.57;;;4.60;99.90;;;;;;4950443;28;89090;-35
2021/12/04 03:22:25;;;;;;;13.80;12.48;;;4.50;99.90;;;;;;4950766;28;88192;-35
2021/12/04 03:24:52;;;;;;;13.38;12.07;;;4.50;99.90;;;;;;4949778;28;88481;-34
2021/12/04 03:27:19;;;;;;;13.45;12.15;;;4.50;99.90;;;;;;4951063;28;88751;-35
2021/12/04 03:29:49;;;;;;;14.77;13.38;;;4.50;99.90;;;;;;4950241;28;87632;-35
2021/12/04 03:32:35;;;;;;;13.70;12.32;;;4.50;99.90;;;;;;4966114;28;90494;-34
2021/12/04 03:43:06;;;;;;;11.77;10.70;;;4.50;99.90;;;;;;4950627;28;89375;-35
2021/12/04 03:45:33;;;;;;;13.05;11.85;;;4.50;99.90;;;;;;4964987;28;90237;-33
2021/12/04 03:48:07;;;;;;;12.35;11.18;;;4.50;99.90;;;;;;4933601;28;89422;-35
2021/12/04 03:50:34;;;;;;;14.15;12.75;;;4.50;99.90;;;;;;4950738;28;88625;-34
2021/12/04 03:52:59;;;;;;;11.73;10.60;;;4.50;99.90;;;;;;4950005;28;90634;-35
2021/12/04 03:55:25;;;;;;;11.32;10.32;;;4.50;99.90;;;;;;4949747;28;88608;-34
2021/12/04 03:57:51;;;;;;;10.23;9.25;;;4.50;99.90;;;;;;4949655;28;88334;-33
2021/12/04 04:00:20;;;;;;;11.55;10.38;;;4.50;99.90;;;;;;4950961;28;88301;-34
2021/12/04 04:02:46;;;;;;;12.82;11.05;;;4.60;99.90;;;;;;4948825;28;88767;-33
2021/12/04 04:05:12;;;;;;;12.57;11.32;;;4.50;99.90;;;;;;4949952;28;88599;-34
2021/12/04 04:07:38;;;;;;;11.55;10.45;;;4.50;99.90;;;;;;4948551;28;88226;-34
2021/12/04 04:10:05;;;;;;;11.70;9.55;;;4.60;99.90;;;;;;4948876;28;88756;-34
2021/12/04 04:12:31;;;;;;;11.63;10.38;;;4.50;99.90;;;;;;4949565;28;88900;-34
2021/12/04 04:14:57;;;;;;;12.32;11.20;;;4.50;99.90;;;;;;4933049;28;88951;-32
2021/12/04 04:17:23;;;;;;;14.68;10.85;;;4.50;99.90;;;;;;4949426;28;88859;-35
2021/12/04 04:19:48;;;;;;;12.73;10.40;;;4.50;99.90;;;;;;4949723;28;88574;-34
2021/12/04 04:22:14;;;;;;;12.35;11.05;;;4.50;99.90;;;;;;4949287;28;89351;-34
2021/12/04 04:24:40;;;;;;;11.20;10.05;;;4.50;99.90;;;;;;4949650;28;88582;-31
2021/12/04 04:27:06;;;;;;;12.20;11.00;;;4.50;99.90;;;;;;4949274;28;88989;-34
2021/12/04 04:29:31;;;;;;;11.60;10.52;;;4.40;99.90;;;;;;4952222;28;87476;-35
2021/12/04 04:31:57;;;;;;;13.05;11.85;;;4.40;99.90;;;;;;4952942;28;89354;-33
2021/12/04 04:34:31;;;;;;;10.95;9.85;;;4.40;99.90;;;;;;4951781;28;89626;-35
2021/12/04 04:37:23;;;;;;;11.85;10.70;;;4.40;99.90;;;;;;4954292;28;89459;-34
2021/12/04 05:01:54;;;;;;;12.77;11.57;;;4.40;99.90;;;;;;4956312;28;88391;-35
2021/12/04 05:12:35;;;;;;;12.82;11.60;;;4.40;99.90;;;;;;4956693;28;88092;-35
2021/12/04 05:15:10;;;;;;;12.70;11.40;;;4.40;99.90;;;;;;4972665;28;89797;-34
2021/12/04 05:20:20;;;;;;;12.00;10.90;;;4.40;99.90;;;;;;4955211;28;88406;-35
2021/12/04 05:22:46;;;;;;;13.73;12.13;;;4.40;99.90;;;;;;4955547;28;87274;-33
2021/12/04 05:25:12;;;;;;;11.77;10.65;;;4.40;99.90;;;;;;4956752;28;89327;-34
2021/12/04 05:27:38;;;;;;;12.50;11.30;;;4.40;99.90;;;;;;4955462;28;89829;-34
2021/12/04 05:30:05;;;;;;;12.30;11.10;;;4.40;99.90;;;;;;4956566;28;88066;-36
2021/12/04 05:32:30;;;;;;;12.00;10.80;;;4.40;99.90;;;;;;4956170;28;87262;-36
2021/12/04 05:34:56;;;;;;;12.23;11.07;;;4.40;99.90;;;;;;4972235;28;89393;-32
2021/12/04 05:37:21;;;;;;;13.57;11.45;;;4.40;99.90;;;;;;4956162;28;88639;-34
2021/12/04 05:39:47;;;;;;;17.42;11.52;;;4.40;99.90;;;;;;4971723;28;88413;-34
2021/12/04 05:42:12;;;;;;;12.88;10.45;;;4.40;99.90;;;;;;4956329;28;87413;-35
2021/12/04 05:44:39;;;;;;;13.70;10.90;;;4.40;99.90;;;;;;4955550;28;89241;-35
2021/12/04 05:47:15;;;;;;;11.02;9.88;;;4.40;99.90;;;;;;4971913;28;88662;-33
2021/12/04 05:57:34;;;;;;;12.43;11.27;;;4.40;99.90;;;;;;4955784;28;88064;-36
2021/12/04 06:00:00;;;;;;;16.25;11.85;;;4.40;99.90;;;;;;4956460;28;87601;-34
2021/12/04 06:02:25;;;;;;;14.57;12.05;;;4.40;99.90;;;;;;4971930;28;86794;-36
2021/12/04 06:04:51;;;;;;;12.27;10.90;;;4.40;99.90;;;;;;4954419;28;89217;-35
2021/12/04 06:07:16;;;;;;;12.85;10.95;;;4.40;99.90;;;;;;4971121;28;89273;-36
2021/12/04 06:09:42;;;;;;;13.43;12.13;;;4.40;99.90;;;;;;4956524;28;88638;-35
2021/12/04 06:12:08;;;;;;;12.85;11.70;;;4.40;99.90;;;;;;4955787;28;87537;-35
2021/12/04 06:14:35;;;;;;;13.82;12.48;;;4.40;99.90;;;;;;4956015;28;89279;-36
2021/12/04 06:17:01;;;;;;;13.82;12.20;;;4.40;99.90;;;;;;4956057;28;88341;-34
2021/12/04 06:24:56;;;;;;;13.82;12.40;;;4.40;99.90;;;;;;4955975;28;89262;-34
2021/12/04 06:27:21;;;;;;;12.90;11.60;;;4.40;99.90;;;;;;4971114;28;88867;-35
2021/12/04 06:29:47;;;;;;;14.23;12.75;;;4.40;99.90;;;;;;4955293;28;88985;-35
2021/12/04 06:32:13;;;;;;;14.85;13.35;;;4.40;99.90;;;;;;4971177;28;87712;-36
2021/12/04 06:34:38;;;;;;;13.95;12.73;;;4.40;99.90;;;;;;4955465;28;87883;-35
2021/12/04 06:37:04;;;;;;;15.52;13.77;;;4.40;99.90;;;;;;4955369;28;89175;-35
2021/12/04 06:39:30;;;;;;;13.75;12.38;;;4.40;99.90;;;;;;4955742;28;88493;-35
2021/12/04 06:41:55;;;;;;;15.48;13.30;;;4.40;99.90;;;;;;4970656;28;87971;-32
2021/12/04 06:44:21;;;;;;;14.15;12.75;;;4.40;99.90;;;;;;4952381;28;89162;-34
2021/12/04 06:46:47;;;;;;;12.80;11.70;;;4.40;99.90;;;;;;4969957;28;88589;-35
2021/12/04 06:49:20;;;;;;;14.73;12.85;;;4.40;99.90;;;;;;4935606;28;90189;-35
2021/12/04 06:51:52;;;;;;;14.52;13.02;;;4.40;99.90;;;;;;4954475;28;87162;-34
2021/12/04 06:54:25;;;;;;;13.55;12.20;;;4.40;99.90;;;;;;4953741;28;89363;-34
2021/12/04 06:56:51;;;;;;;13.00;11.70;;;4.40;99.90;;;;;;4952501;28;88842;-33
2021/12/04 06:59:24;;;;;;;13.60;11.65;;;4.40;99.90;;;;;;4952457;28;88480;-36
2021/12/04 07:01:50;;;;;;;13.18;11.70;;;4.40;99.90;;;;;;4954249;28;87934;-34
2021/12/04 07:04:18;;;;;;;13.18;11.82;;;4.40;99.90;;;;;;4954482;28;88001;-32
2021/12/04 07:06:45;;;;;;;14.90;13.33;;;4.40;99.90;;;;;;4953908;28;88452;-35
2021/12/04 07:09:11;;;;;;;13.80;12.45;;;4.40;99.90;;;;;;4954127;28;89459;-34
2021/12/04 07:11:37;;;;;;;14.45;13.07;;;4.40;99.90;;;;;;4953105;28;87624;-36
2021/12/04 07:14:03;;;;;;;15.25;12.55;;;4.40;99.90;;;;;;4953933;28;88890;-35
2021/12/04 07:16:29;;;;;;;14.30;12.32;;;4.40;99.90;;;;;;4953857;28;87420;-36
2021/12/04 07:18:54;;;;;;;14.50;12.80;;;4.40;99.90;;;;;;4954567;28;89198;-34
2021/12/04 07:21:20;;;;;;;16.60;13.73;;;4.40;99.90;;;;;;4954864;28;87839;-34
2021/12/04 07:23:46;;;;;;;15.35;13.70;;;4.40;99.90;;;;;;4953577;28;89461;-35
2021/12/04 07:26:12;;;;;;;13.95;12.55;;;4.40;99.90;;;;;;4954385;28;87863;-34
2021/12/04 07:28:38;;;;;;;13.73;12.32;;;4.40;99.90;;;;;;4953286;28;88358;-34
2021/12/04 07:31:04;;;;;;;16.25;14.05;;;4.40;99.90;;;;;;4954196;28;88164;-35
2021/12/04 07:33:30;;;;;;;15.85;13.18;;;4.40;99.90;;;;;;4952945;28;89070;-34
2021/12/04 07:35:57;;;;;;;14.85;13.20;;;4.40;99.90;;;;;;4951237;28;88745;-34
2021/12/04 07:38:23;;;;;;;15.13;13.50;;;4.40;99.90;;;;;;4969244;28;88721;-35
2021/12/04 07:40:49;;;;;;;14.48;13.13;;;4.40;99.90;;;;;;4953065;28;87682;-36
2021/12/04 07:43:15;;;;;;;15.40;13.45;;;4.40;99.90;;;;;;4953914;28;89386;-37
2021/12/04 07:45:41;;;;;;;16.27;13.63;;;4.40;99.90;;;;;;4954382;28;87817;-32
2021/12/04 07:48:06;;;;;;;14.85;13.30;;;4.40;99.90;;;;;;4969605;28;88572;-35
2021/12/04 07:50:32;;;;;;;15.50;13.10;;;4.40;99.90;;;;;;4954408;28;87453;-34
2021/12/04 07:52:58;;;;;;;15.25;13.63;;;4.40;99.90;;;;;;4954447;28;88795;-35
2021/12/04 07:55:26;;;;;;;15.32;13.85;;;4.40;99.90;;;;;;4953804;28;88795;-35
2021/12/04 07:57:52;;;;;;;15.20;13.60;;;4.50;99.90;;;;;;4969185;28;92168;-35
2021/12/04 08:00:19;;;;;;;16.52;14.93;;;4.50;99.90;;;;;;4953194;28;87734;-35
2021/12/04 08:02:45;;;;;;;18.52;15.48;;;4.50;99.90;;;;;;4952823;28;90769;-34
2021/12/04 08:05:11;;;;;;;17.58;15.77;;;4.50;99.90;;;;;;4951461;28;88462;-35
2021/12/04 08:07:38;;;;;;;20.10;17.95;;;4.60;99.90;;;;;;4946280;28;89193;-35
2021/12/04 08:10:05;;;;;;;22.25;16.23;;;4.50;99.90;;;;;;4952260;28;87598;-37
2021/12/04 08:12:31;;;;;;;21.73;16.20;;;4.50;99.90;;;;;;4951340;28;88952;-35
2021/12/04 08:14:57;;;;;;;18.60;16.48;;;4.60;99.90;;;;;;4952152;28;89027;-36
2021/12/04 08:17:24;;;;;;;18.42;16.42;;;4.50;99.90;;;;;;4952374;28;89481;-35
2021/12/04 08:19:50;;;;;;;23.40;18.63;;;4.60;99.90;;;;;;4951617;28;88061;-33
2021/12/04 08:22:16;;;;;;;24.45;18.08;;;4.60;99.90;;;;;;4952049;28;89627;-36
2021/12/04 08:24:44;;;;;;;21.88;18.10;;;4.60;99.90;;;;;;4951989;28;88537;-34
2021/12/04 08:27:10;;;;;;;25.25;19.13;;;4.60;99.90;;;;;;4950331;28;88625;-34
2021/12/04 08:29:35;;;;;;;23.05;18.70;;;4.70;99.90;;;;;;4951962;28;86791;-35
2021/12/04 08:32:01;;;;;;;21.58;18.13;;;4.70;99.90;;;;;;4951509;28;87812;-34
2021/12/04 08:34:27;;;;;;;22.90;19.33;;;4.70;99.90;;;;;;4967178;28;88539;-36
2021/12/04 08:36:53;;;;;;;23.77;18.08;;;4.70;99.90;;;;;;4952482;28;87794;-34
2021/12/04 08:39:20;;;;;;;24.40;18.55;;;4.70;99.90;;;;;;4950292;28;88849;-35
2021/12/04 08:41:46;;;;;;;21.98;19.40;;;4.70;99.90;;;;;;4952105;28;89005;-34
2021/12/04 08:44:12;;;;;;;24.52;18.42;;;4.70;99.90;;;;;;4950746;28;90003;-36
2021/12/04 08:46:38;;;;;;;21.98;16.48;;;4.80;99.90;;;;;;4952491;28;88958;-34
2021/12/04 08:52:45;;;;;;;19.45;17.05;;;4.70;99.90;;;;;;4946319;28;87895;-33
2021/12/04 08:55:12;;;;;;;25.30;18.55;;;4.80;99.90;;;;;;4943941;28;88982;-31
2021/12/04 08:57:38;;;;;;;22.08;16.40;;;4.80;99.90;;;;;;4959114;28;88413;-35
2021/12/04 09:04:02;;;;;;;25.73;18.45;;;4.80;99.90;;;;;;4939371;28;87295;-35
2021/12/04 09:06:32;;;;;;;20.08;16.92;;;4.90;99.90;;;;;;4948510;28;88690;-35
2021/12/04 09:09:15;;;;;;;20.92;15.38;;;4.80;99.90;;;;;;4944226;28;89238;-36
2021/12/04 09:15:21;;;;;;;22.20;18.73;;;4.90;99.90;;;;;;4949113;28;88021;-35
2021/12/04 09:17:46;;;;;;;22.60;18.63;;;5.00;99.90;;;;;;4950227;28;88842;-35
2021/12/04 09:20:16;;;;;;;20.92;18.67;;;5.00;99.90;;;;;;4941633;28;88938;-36
2021/12/04 09:26:27;;;;;;;30.52;22.77;;;5.10;99.90;;;;;;4971007;28;89108;-36
2021/12/04 09:29:05;;;;;;;25.40;19.23;;;5.10;99.90;;;;;;4967817;28;88600;-36
2021/12/04 10:34:57;;;;;;;28.50;21.95;;;5.60;99.90;;;;;;4929231;28;88010;-34
2021/12/04 10:37:27;;;;;;;35.58;24.30;;;5.60;99.90;;;;;;4944390;28;89533;-36
2021/12/04 10:39:59;;;;;;;31.88;23.73;;;5.50;99.90;;;;;;4943969;28;90237;-35
2021/12/04 10:42:31;;;;;;;35.58;24.10;;;5.50;99.90;;;;;;4944801;28;89442;-35
2021/12/04 10:44:59;;;;;;;36.00;23.52;;;5.60;99.90;;;;;;4926904;28;87361;-37
2021/12/04 10:47:26;;;;;;;34.80;24.25;;;5.60;99.90;;;;;;4943811;28;89098;-34
2021/12/04 10:55:22;;;;;;;38.03;25.65;;;5.70;99.90;;;;;;4944333;28;87536;-35
2021/12/04 10:58:27;;;;;;;33.50;23.58;;;5.60;99.90;;;;;;4944498;28;87810;-35
2021/12/04 11:01:30;;;;;;;33.72;24.90;;;5.60;99.90;;;;;;4944495;28;88942;-35
2021/12/04 11:04:08;;;;;;;34.85;25.05;;;5.60;99.90;;;;;;4945255;28;88444;-35
2021/12/04 11:43:29;;;;;;;30.33;24.90;;;5.80;99.90;;;;;;4954047;28;87548;-37
2021/12/04 11:48:31;;;;;;;;;;;5.80;99.90;;;;;;4946060;28;88037;-36
2021/12/04 11:50:57;;;;;;;34.78;25.27;;;5.80;99.90;;;;;;4947112;28;87931;-33
2021/12/04 11:53:23;;;;;;;31.13;24.50;;;5.80;99.90;;;;;;4945588;28;87300;-34
2021/12/04 11:55:50;;;;;;;33.63;26.70;;;5.80;99.90;;;;;;4946403;28;89993;-37
2021/12/04 11:58:26;;;;;;;36.00;26.58;;;5.80;99.90;;;;;;4954949;28;89165;-34
2021/12/04 12:00:58;;;;;;;35.55;30.45;;;5.80;99.90;;;;;;4945128;28;88801;-35
2021/12/04 12:03:34;;;;;;;38.50;30.40;;;5.70;99.90;;;;;;4943923;28;88111;-34
2021/12/04 12:09:30;;;;;;;41.45;29.13;;;5.80;99.90;;;;;;4940304;28;88413;-39
2021/12/04 12:12:02;;;;;;;43.28;32.08;;;5.80;99.90;;;;;;4922105;28;88865;-34
2021/12/04 12:14:41;;;;;;;49.15;34.53;;;5.80;99.90;;;;;;4904997;28;88381;-37
2021/12/04 12:17:08;;;;;;;47.13;35.33;;;5.80;99.90;;;;;;4903364;28;89553;-32
2021/12/04 12:19:39;;;;;;;43.05;32.63;;;5.80;99.90;;;;;;4937731;28;88650;-37
2021/12/04 12:22:34;;;;;;;50.13;35.97;;;5.80;99.90;;;;;;4937290;28;89012;-35
2021/12/04 12:25:12;;;;;;;54.90;37.45;;;5.80;99.90;;;;;;4921624;28;87710;-34
2021/12/04 12:34:08;;;;;;;47.58;37.53;;;5.80;99.90;;;;;;4911049;28;87890;-35
2021/12/04 12:36:34;;;;;;;58.92;37.33;;;5.80;99.90;;;;;;4906273;28;87376;-33
2021/12/04 12:39:20;;;;;;;51.22;35.10;;;5.80;99.90;;;;;;4917341;28;89861;-32
2021/12/04 12:41:49;;;;;;;53.95;37.15;;;5.90;99.90;;;;;;4951853;28;88558;-37
2021/12/04 12:44:19;;;;;;;51.90;35.20;;;5.80;99.90;;;;;;4952427;28;88681;-37
2021/12/04 12:46:52;;;;;;;46.70;34.33;;;5.80;99.90;;;;;;4959565;28;87542;-33
2021/12/04 12:49:34;;;;;;;45.50;30.95;;;5.80;99.90;;;;;;4944393;28;89832;-35
2021/12/04 12:52:21;;;;;;;51.97;33.15;;;5.80;99.90;;;;;;4944157;28;88725;-33
2021/12/04 13:13:26;;;;;;;60.07;33.80;;;5.80;99.90;;;;;;4942925;28;89295;-31
2021/12/04 13:18:23;;;;;;;42.28;29.83;;;5.80;99.90;;;;;;4945231;28;87325;-35
2021/12/04 13:20:51;;;;;;;43.25;29.48;;;5.80;99.90;;;;;;4943226;28;87303;-37
2021/12/04 13:30:06;;;;;;;37.35;27.00;;;5.90;99.90;;;;;;4943364;28;89534;-33
2021/12/04 13:32:40;;;;;;;47.38;30.92;;;5.90;99.90;;;;;;4926828;28;88008;-34
2021/12/04 13:35:20;;;;;;;40.22;28.42;;;5.80;99.90;;;;;;4946332;28;89213;-39
2021/12/04 13:37:47;;;;;;;42.88;30.73;;;5.80;99.90;;;;;;4969402;28;88660;-38
2021/12/04 13:43:55;;;;;;;53.08;35.97;;;5.80;99.90;;;;;;4944617;28;86753;-38
2021/12/04 13:52:50;;;;;;;55.97;38.92;;;5.70;99.90;;;;;;4942133;28;89039;-33
2021/12/04 13:55:17;;;;;;;64.20;37.85;;;5.70;99.90;;;;;;4937775;28;89034;-35
2021/12/04 13:57:44;;;;;;;59.53;38.00;;;5.80;99.90;;;;;;4931484;28;89230;-33
2021/12/04 14:00:12;;;;;;;64.07;39.60;;;5.80;99.90;;;;;;4926093;28;90849;-33
2021/12/04 14:02:38;;;;;;;69.80;37.47;;;5.80;99.90;;;;;;4926547;28;88499;-33
2021/12/04 14:05:10;;;;;;;62.05;36.28;;;5.80;99.90;;;;;;4927601;28;87412;-33
2021/12/04 14:07:36;;;;;;;54.95;38.13;;;5.80;99.90;;;;;;4925202;28;89653;-34
2021/12/04 14:10:13;;;;;;;57.67;38.38;;;5.80;99.90;;;;;;4927405;28;88872;-38
2021/12/04 14:12:39;;;;;;;55.45;35.30;;;5.80;99.90;;;;;;4926965;28;88436;-38
2021/12/04 14:15:11;;;;;;;60.58;37.60;;;5.80;99.90;;;;;;4927576;28;87411;-34
2021/12/04 14:17:38;;;;;;;61.38;36.92;;;5.80;99.90;;;;;;4926580;28;90659;-32
2021/12/04 14:20:05;;;;;;;57.47;37.03;;;5.80;99.90;;;;;;4925531;28;89461;-34
2021/12/04 14:22:31;;;;;;;68.35;38.67;;;5.80;99.90;;;;;;4942882;28;88085;-34
2021/12/04 14:25:01;;;;;;;67.45;37.75;;;5.80;99.90;;;;;;4928027;28;87551;-35
2021/12/04 14:27:30;;;;;;;60.40;37.47;;;5.70;99.90;;;;;;4949584;28;89543;-37
2021/12/04 14:33:39;;;;;;;62.05;36.70;;;5.80;99.90;;;;;;4935125;28;87730;-38
2021/12/04 14:36:06;;;;;;;61.13;37.97;;;5.80;99.90;;;;;;4932620;28;87262;-34
2021/12/04 14:38:32;;;;;;;58.50;37.42;;;5.70;99.90;;;;;;4925576;28;90271;-34
2021/12/04 14:41:05;;;;;;;57.05;35.35;;;5.80;99.90;;;;;;4945346;28;89025;-38
2021/12/04 14:43:36;;;;;;;54.33;36.30;;;5.70;99.90;;;;;;4933859;28;88866;-38
2021/12/04 14:49:44;;;;;;;55.50;33.22;;;5.80;99.90;;;;;;4954607;28;88281;-38
2021/12/04 14:52:17;;;;;;;61.35;37.58;;;5.80;99.90;;;;;;4936149;28;88726;-38
2021/12/04 14:54:43;;;;;;;60.75;36.58;;;5.80;99.90;;;;;;4953521;28;88878;-38
2021/12/04 14:57:18;;;;;;;56.35;34.38;;;5.80;99.90;;;;;;4954187;28;87623;-37
2021/12/04 14:59:44;;;;;;;52.38;36.15;;;5.70;99.90;;;;;;4953424;28;89232;-36
2021/12/04 15:02:19;;;;;;;56.35;35.05;;;5.70;99.90;;;;;;4952101;28;90001;-36
2021/12/04 15:04:45;;;;;;;58.22;36.05;;;5.70;99.90;;;;;;4953057;28;88807;-39
2021/12/04 15:07:31;;;;;;;63.70;36.10;;;5.70;99.90;;;;;;4952783;28;86640;-38
2021/12/04 15:09:57;;;;;;;57.25;35.58;;;5.70;99.90;;;;;;4953700;28;89222;-38
2021/12/04 15:12:29;;;;;;;57.30;37.72;;;5.60;99.90;;;;;;4953056;28;89127;-37
2021/12/04 15:15:02;;;;;;;49.50;35.95;;;5.60;99.90;;;;;;4953169;28;89017;-38
2021/12/04 15:17:28;;;;;;;53.53;34.95;;;5.60;99.90;;;;;;4952822;28;87560;-38
2021/12/04 15:20:00;;;;;;;52.20;34.10;;;5.60;99.90;;;;;;4952060;28;88895;-37
2021/12/04 15:22:41;;;;;;;52.78;34.90;;;5.60;99.90;;;;;;4953293;28;88840;-37
2021/12/04 15:25:13;;;;;;;60.90;36.58;;;5.60;99.90;;;;;;4953793;28;88448;-36
2021/12/04 15:27:39;;;;;;;54.65;33.47;;;5.60;99.90;;;;;;4952213;28;88186;-35
2021/12/04 15:30:09;;;;;;;56.53;36.55;;;5.60;99.90;;;;;;4953428;28;88723;-37
2021/12/04 15:32:39;;;;;;;51.00;34.55;;;5.60;99.90;;;;;;4936189;28;90061;-37
2021/12/04 15:35:33;;;;;;;49.33;35.17;;;5.60;99.90;;;;;;4968348;28;90005;-36
2021/12/04 15:38:03;;;;;;;48.22;34.75;;;5.50;99.90;;;;;;4951411;28;87750;-36
2021/12/04 15:43:55;;;;;;;47.63;35.83;;;5.60;99.90;;;;;;4946842;28;88848;-36
2021/12/04 15:46:32;;;;;;;51.20;33.97;;;5.60;99.90;;;;;;4953089;28;87434;-36
2021/12/04 15:54:22;;;;;;;39.05;31.20;;;5.60;99.90;;;;;;4952680;28;88899;-34
2021/12/04 15:56:53;;;;;;;46.65;32.45;;;5.60;99.90;;;;;;4952353;28;88510;-37
2021/12/04 15:59:25;;;;;;;33.50;28.30;;;5.60;99.90;;;;;;4952419;28;87791;-36
2021/12/04 16:01:53;;;;;;;39.45;30.38;;;5.60;99.90;;;;;;4952562;28;89153;-34
2021/12/04 16:04:29;;;;;;;39.92;30.70;;;5.60;99.90;;;;;;4967167;28;89362;-36
2021/12/04 16:06:56;;;;;;;42.03;34.03;;;5.60;99.90;;;;;;4948262;28;89075;-37
2021/12/04 16:09:28;;;;;;;36.33;31.50;;;5.60;99.90;;;;;;4949413;28;87792;-34
2021/12/04 16:12:04;;;;;;;36.17;30.40;;;5.50;99.90;;;;;;4948936;28;89492;-36
2021/12/04 16:14:32;;;;;;;38.10;30.20;;;5.50;99.90;;;;;;4962180;28;88983;-36
2021/12/04 16:16:58;;;;;;;36.33;29.15;;;5.50;99.90;;;;;;4966914;28;89671;-36
2021/12/04 16:19:27;;;;;;;36.90;29.05;;;5.50;99.90;;;;;;4952436;28;87167;-38
2021/12/04 16:21:58;;;;;;;38.58;30.13;;;5.50;99.90;;;;;;4953156;28;88915;-37
2021/12/04 16:24:26;;;;;;;39.28;30.58;;;5.50;99.90;;;;;;4952069;28;89165;-36
2021/12/04 16:26:57;;;;;;;36.42;31.05;;;5.50;99.90;;;;;;4951099;28;89667;-36
2021/12/04 16:29:25;;;;;;;37.15;28.80;;;5.40;99.90;;;;;;4952317;28;88022;-36
2021/12/04 16:40:32;;;;;;;34.28;29.48;;;5.50;99.90;;;;;;4931051;28;88174;-38
2021/12/04 16:43:08;;;;;;;39.03;31.83;;;5.50;99.90;;;;;;4906773;28;89153;-36
2021/12/04 16:45:36;;;;;;;36.30;32.30;;;5.50;99.90;;;;;;4936302;28;88222;-36
2021/12/04 16:48:07;;;;;;;39.45;32.30;;;5.40;99.90;;;;;;4975875;28;90996;-36
2021/12/04 16:58:53;;;;;;;28.17;24.75;;;5.50;99.90;;;;;;4946636;28;89720;-37
2021/12/04 17:01:18;;;;;;;29.77;24.23;;;5.50;99.90;;;;;;4954316;28;88191;-37
2021/12/04 17:03:45;;;;;;;29.48;24.05;;;5.40;99.90;;;;;;4953834;28;89365;-35
2021/12/04 17:06:11;;;;;;;28.38;24.70;;;5.40;99.90;;;;;;4953678;28;88245;-36
2021/12/04 17:08:36;;;;;;;28.40;24.50;;;5.40;99.90;;;;;;4954810;28;88546;-35
2021/12/04 17:11:04;;;;;;;28.60;25.02;;;5.40;99.90;;;;;;4954622;28;88127;-36
2021/12/04 17:13:31;;;;;;;26.80;23.90;;;5.40;99.90;;;;;;4953465;28;87922;-37
2021/12/04 17:15:58;;;;;;;25.02;21.77;;;5.50;99.90;;;;;;4953718;28;90289;-36
2021/12/04 17:18:26;;;;;;;27.05;23.73;;;5.40;99.90;;;;;;4969972;28;88675;-35